Terminal Aerodrome Forecast
Issued by NWS

Home | Current Version | Previous Version | Text Only | Print | Product List | Glossary Off
Versions: 1 2 3 4 5 6 7 8 9 10 11 12 13 14 15 16 17 18 19 20 21 22

000
FTUS43 KOAX 031507 AAB
TAFCDR
TAF AMD
KCDR 031507Z 0315/0412 02018G25KT 1SM -SN BKN040
     FM031700 35012KT 2SM -SN FEW010 BKN050
     FM031900 35015G25KT 5SM -SHSN SCT018 BKN050
     FM040100 32007KT P6SM SCT060=

USA.gov is the U.S. government's official web portal to all federal, state and local government web resources and services.